Thursday, July 24, 2014
19:32 UTC
  |  Log In   |  Register Free
Airport Search:

Modesto City-Co-Harry Sham Fld Airport
(KMOD)

Modesto City-Co-Harry Sham Fld Airport Diagram
No Airport Diagram Available

FAA data valid effective July 24, 2014 until September 18, 2014 (unless otherwise noted).

 
 
 
 
 
 
 
 
 
 
 
 
 
 

Current Aviation Weather for Modesto City-Co-Harry Sham Fld Airport (KMOD)

The most recent METAR observation for KMOD was updated at: 1753 UTC
METAR Summary (Translated METAR)
KMOD
241753Z 31010KT 10SM CLR 27/14 A2995 RMK AO2 SLP143 T02670144 10267 20183 58009
KSCK
(21 nm NW from KMOD)
241755Z 32008KT 10SM CLR 27/16 A2996 RMK AO2 SLP145 6//// T02670161 10267 20183 58009 PNO $
TAF Summary (Translated TAF)
KSCK
(21 nm NW from KMOD)
241720Z 2418/2518 31010KT P6SM SKC FM250500 27007KT P6SM SKC FM251200 33007KT P6SM SKC
KMCE
(29.3 nm SE from KMOD)
241724Z 2418/2518 32011KT P6SM SKC FM250400 31004KT P6SM SKC
  Airport Weather Conditions for KMOD

 Current Weather at MOD
84° F
Fair
West winds at 12.7 mph
MOD NOAA Radar

Pressure: 29.94 in
Humidity: 41%
Wind: West at 12.7 MPH (11 KT)
Dew Point: 57.9°F
Visibility: 10.00 mi


Airport Weather Forecast for KMOD

Translated METAR and TAF for KMOD
Translated METAR for KMOD (1925 UTC 24 July 2014)
found at http://aviationweather.gov/adds/metars/
 
METAR text: KMOD 241853Z 29011KT 10SM CLR 29/14 A2994 RMK AO2 SLP137 T02890144
Conditions at: KMOD (MODESTO , CA, US) observed 1853 UTC 24 July 2014
Temperature: 28.9°C (84°F)
Dewpoint: 14.4°C (58°F) [RH = 41%]
Pressure (altimeter): 29.94 inches Hg (1014.0 mb)
[Sea-level pressure: 1013.7 mb]
Winds: from the WNW (290 degrees) at 13 MPH (11 knots; 5.7 m/s)
Visibility: 10 or more miles (16+ km)
Ceiling: at least 12,000 feet AGL
Clouds: sky clear below 12,000 feet AGL
Weather: no significant weather observed at this time
Translated TAF for KMOD

There is no translated TAF available for this airport

Find All Airport Services Find A Hotel Find A Rental Car Find A Golf Course Find A Restaurant $100 Hamburger



FBO's on the Field
FBO Company Facility Photos Services Transportation Aviation Fuel Prices: Prices include tax
Catering Weather Repair Courtesy Rental Type 100LL JetA JetA+ MOGAS 8087
 
Sky Trek Aviation

This FBO has not yet been rated
FS:Avfuel
Last Updated: Jul-17
Login to update fuel prices
SS:
Contact Sky Trek AviationMore FBO Information
 
Add another FBO Facility Photos Catering Weather Repair Courtesy Rental Type 100LL JetA JetA+ MOGAS 8087
Services Transportation Aviation Fuel Prices: Prices include tax


GlobalAir.com Airport Resource Center model-print
model-print
model-print
model-print